Time;durP1;ratioP1;P1;durP2;ratioP2;P2;SDS_P1;SDS_P2;PMS_P1;PMS_P2;Temp;Humidity;BMP_temperature;BMP_pressure;BME280_temperature;BME280_humidity;BME280_pressure;Samples;Min_cycle;Max_cycle;Signal;HPM_P1;HPM_P2
2020/12/17 00:00:40;;;;;;;20.30;14.03;;;;;;;3.50;100.00;100619.25;2083358;28;20029;-77
2020/12/17 00:01:40;;;;;;;24.80;16.00;;;;;;;3.51;100.00;100613.25;2081849;28;20495;-80
2020/12/17 00:02:41;;;;;;;23.50;15.73;;;;;;;3.51;100.00;100617.50;2079234;28;20068;-80
2020/12/17 00:03:41;;;;;;;21.00;14.60;;;;;;;3.55;100.00;100620.09;2079322;28;20120;-81
2020/12/17 00:04:41;;;;;;;20.23;14.33;;;;;;;3.59;100.00;100618.41;2077768;28;20284;-81
2020/12/17 00:05:42;;;;;;;20.27;15.00;;;;;;;3.55;100.00;100619.25;2079173;28;20040;-80
2020/12/17 00:06:42;;;;;;;20.93;15.47;;;;;;;3.55;100.00;100614.09;2079560;28;20029;-80
2020/12/17 00:07:42;;;;;;;21.63;15.87;;;;;;;3.56;100.00;100626.16;2079759;28;20464;-79
2020/12/17 00:08:43;;;;;;;18.80;13.90;;;;;;;3.60;100.00;100616.72;2079672;28;20060;-81
2020/12/17 00:09:43;;;;;;;23.13;16.10;;;;;;;3.57;100.00;100618.41;2079893;28;20507;-81
2020/12/17 00:10:43;;;;;;;22.23;15.53;;;;;;;3.58;100.00;100620.13;2082804;28;20047;-77
2020/12/17 00:11:44;;;;;;;17.50;13.37;;;;;;;3.60;100.00;100614.13;2084491;28;20029;-77
2020/12/17 00:12:46;;;;;;;22.77;15.60;;;;;;;3.58;100.00;100621.84;2080524;28;20029;-73
2020/12/17 00:13:46;;;;;;;23.20;15.05;;;;;;;3.57;100.00;100621.00;2081461;28;20033;-74
2020/12/17 00:14:47;;;;;;;19.77;14.77;;;;;;;3.58;100.00;100620.13;2079921;28;20025;-74
2020/12/17 00:15:47;;;;;;;23.30;15.77;;;;;;;3.56;100.00;100615.84;2079887;28;20507;-73
2020/12/17 00:16:48;;;;;;;23.23;15.80;;;;;;;3.47;100.00;100619.22;2079406;28;20037;-72
2020/12/17 00:17:51;;;;;;;21.43;16.13;;;;;;;3.46;100.00;100612.34;2079922;28;20754;-73
2020/12/17 00:18:52;;;;;;;19.17;14.10;;;;;;;3.48;100.00;100609.78;2079898;28;20032;-73
2020/12/17 00:19:52;;;;;;;19.30;14.90;;;;;;;3.51;100.00;100615.81;2079569;28;20124;-72
2020/12/17 00:20:52;;;;;;;21.67;15.67;;;;;;;3.53;100.00;100610.66;2080001;28;20033;-73
2020/12/17 00:21:53;;;;;;;23.27;15.83;;;;;;;3.46;100.00;100621.78;2087354;28;20032;-73
2020/12/17 00:22:53;;;;;;;22.60;15.38;;;;;;;3.47;100.00;100615.78;2087733;28;20025;-74
2020/12/17 00:23:53;;;;;;;22.47;16.67;;;;;;;3.47;100.00;100621.78;2080672;28;20048;-74
2020/12/17 00:24:54;;;;;;;21.40;16.03;;;;;;;3.50;100.00;100619.25;2080683;28;20483;-75
2020/12/17 00:25:54;;;;;;;20.00;15.13;;;;;;;3.46;100.00;100620.06;2080847;28;20029;-75
2020/12/17 00:26:54;;;;;;;21.13;15.57;;;;;;;3.37;100.00;100610.59;2080586;28;20029;-73
2020/12/17 00:27:55;;;;;;;18.10;13.97;;;;;;;3.37;100.00;100608.00;2080023;28;20360;-75
2020/12/17 00:28:55;;;;;;;26.33;17.10;;;;;;;3.38;100.00;100614.84;2079811;28;20487;-74
2020/12/17 00:29:55;;;;;;;23.13;15.43;;;;;;;3.31;100.00;100609.69;2079506;28;20037;-73
2020/12/17 00:30:56;;;;;;;21.63;14.97;;;;;;;3.32;100.00;100612.25;2079762;28;20033;-73
2020/12/17 00:31:56;;;;;;;22.00;15.00;;;;;;;3.29;100.00;100616.53;2079752;28;20104;-74
2020/12/17 00:32:56;;;;;;;19.60;15.33;;;;;;;3.30;100.00;100616.53;2079958;28;20035;-73
2020/12/17 00:33:56;;;;;;;20.63;15.27;;;;;;;3.31;100.00;100607.94;2079503;28;20518;-74
2020/12/17 00:34:57;;;;;;;22.37;16.10;;;;;;;3.29;100.00;100613.94;2079886;28;20582;-73
2020/12/17 00:35:57;;;;;;;19.77;15.60;;;;;;;3.25;100.00;100608.78;2079695;28;20480;-74
2020/12/17 00:36:57;;;;;;;22.20;15.93;;;;;;;3.29;100.00;100609.66;2079369;28;20033;-74
2020/12/17 00:37:58;;;;;;;22.57;16.43;;;;;;;3.32;100.00;100607.09;2079451;28;20614;-74
2020/12/17 00:38:58;;;;;;;22.50;16.20;;;;;;;3.34;100.00;100600.25;2079774;28;20079;-74
2020/12/17 00:39:59;;;;;;;24.13;16.40;;;;;;;3.40;100.00;100600.28;2079613;28;20029;-75
2020/12/17 00:40:59;;;;;;;21.63;16.33;;;;;;;3.39;100.00;100601.13;2086684;28;20852;-76
2020/12/17 00:42:02;;;;;;;21.87;16.40;;;;;;;3.33;100.00;100600.25;2078747;28;20120;-76
2020/12/17 00:43:03;;;;;;;21.33;16.05;;;;;;;3.31;100.00;100594.22;2079356;28;20087;-76
2020/12/17 00:44:03;;;;;;;21.93;17.00;;;;;;;3.41;100.00;100603.72;2086548;28;20646;-75
2020/12/17 00:45:03;;;;;;;23.07;17.17;;;;;;;3.42;100.00;100606.31;2079867;28;20029;-75
2020/12/17 00:46:04;;;;;;;27.40;17.67;;;;;;;3.35;100.00;100601.97;2079547;28;20025;-74
2020/12/17 00:47:04;;;;;;;29.67;20.23;;;;;;;3.36;100.00;100602.81;2079798;28;20022;-75
2020/12/17 00:48:04;;;;;;;32.67;20.77;;;;;;;3.33;100.00;100598.53;2079673;28;20056;-74
2020/12/17 00:49:05;;;;;;;36.27;21.53;;;;;;;3.35;100.00;100601.97;2087493;28;20024;-74
2020/12/17 00:50:07;;;;;;;35.73;23.17;;;;;;;3.45;100.00;100602.88;2088890;28;20071;-74
2020/12/17 00:51:08;;;;;;;36.22;23.42;;;;;;;3.46;100.00;100598.59;2081010;28;20035;-74
2020/12/17 00:52:08;;;;;;;33.78;23.58;;;;;;;3.56;100.00;100600.38;2080437;28;20022;-74
2020/12/17 00:53:08;;;;;;;40.70;24.23;;;;;;;3.39;100.00;100603.69;2081003;28;20041;-74
2020/12/17 00:54:08;;;;;;;36.40;23.70;;;;;;;3.36;100.00;100600.25;2081177;28;20124;-73
2020/12/17 00:55:09;;;;;;;35.77;24.00;;;;;;;3.41;100.00;100604.56;2081460;28;20132;-74
2020/12/17 00:56:09;;;;;;;36.63;24.05;;;;;;;3.42;100.00;100600.31;2081253;28;20021;-74
2020/12/17 00:57:10;;;;;;;37.00;24.50;;;;;;;3.45;100.00;100602.03;2080728;28;20495;-74
2020/12/17 00:58:10;;;;;;;35.93;23.53;;;;;;;3.40;100.00;100600.28;2080841;28;20056;-73
2020/12/17 00:59:10;;;;;;;39.63;24.50;;;;;;;3.37;100.00;100601.97;2080838;28;20033;-74
2020/12/17 01:00:10;;;;;;;40.13;24.77;;;;;;;3.35;100.00;100601.97;2081695;28;20028;-74
2020/12/17 01:01:11;;;;;;;41.60;24.60;;;;;;;3.34;100.00;100601.94;2086305;28;20493;-74
2020/12/17 01:02:11;;;;;;;41.10;25.33;;;;;;;3.26;100.00;100601.91;2081406;28;20541;-74
2020/12/17 01:03:11;;;;;;;40.40;23.10;;;;;;;3.23;100.00;100601.91;2081521;28;20040;-76
2020/12/17 01:04:12;;;;;;;41.60;24.93;;;;;;;3.22;100.00;100615.63;2081141;28;20021;-76
2020/12/17 01:05:12;;;;;;;41.70;25.70;;;;;;;3.19;100.00;100610.44;2079831;28;20506;-75
2020/12/17 01:06:12;;;;;;;40.30;25.60;;;;;;;3.13;100.00;100616.44;2081825;28;20104;-75
2020/12/17 01:07:13;;;;;;;43.83;24.90;;;;;;;3.14;100.00;100612.13;2081502;28;20021;-74
2020/12/17 01:08:13;;;;;;;37.73;25.03;;;;;;;3.15;100.00;100613.88;2081837;28;20040;-73
2020/12/17 01:09:13;;;;;;;39.57;25.23;;;;;;;3.18;100.00;100603.59;2082031;28;20553;-73
2020/12/17 01:10:14;;;;;;;48.03;26.87;;;;;;;3.11;100.00;100608.69;2089687;28;20031;-74
2020/12/17 01:11:14;;;;;;;39.53;25.33;;;;;;;3.07;100.00;100612.09;2090050;28;20028;-73
2020/12/17 01:12:14;;;;;;;42.90;27.83;;;;;;;3.08;100.00;100608.69;2081325;28;20120;-74
2020/12/17 01:13:14;;;;;;;41.37;27.00;;;;;;;3.06;100.00;100612.94;2080092;28;20072;-74
2020/12/17 01:14:15;;;;;;;38.30;25.47;;;;;;;2.99;100.00;100618.88;2089620;28;20021;-75
2020/12/17 01:15:15;;;;;;;49.30;27.00;;;;;;;2.97;100.00;100612.88;2089900;28;20432;-75
2020/12/17 01:16:15;;;;;;;44.37;27.70;;;;;;;2.99;100.00;100612.88;2081643;28;20177;-77
2020/12/17 01:17:16;;;;;;;42.97;27.27;;;;;;;2.94;100.00;100611.13;2083037;28;20306;-74
2020/12/17 01:18:16;;;;;;;45.07;27.43;;;;;;;2.94;100.00;100621.41;2088138;28;20059;-76
2020/12/17 01:19:23;;;;;;;48.63;27.70;;;;;;;2.91;100.00;100613.69;2077240;28;20754;-79
2020/12/17 01:20:33;;;;;;;46.53;26.88;;;;;;;3.05;100.00;100618.94;2082191;28;20033;-78
2020/12/17 01:21:33;;;;;;;45.63;27.73;;;;;;;3.01;100.00;100624.06;2088578;28;20029;-77
2020/12/17 01:22:33;;;;;;;47.70;28.13;;;;;;;2.93;100.00;100618.84;2082745;28;20263;-77
2020/12/17 01:23:34;;;;;;;54.87;30.23;;;;;;;2.93;100.00;100624.00;2081966;28;20032;-77
2020/12/17 01:24:36;;;;;;;43.65;27.30;;;;;;;2.92;100.00;100622.28;2086755;28;20506;-76
2020/12/17 01:25:36;;;;;;;56.00;30.63;;;;;;;2.89;100.00;100623.13;2075377;28;20041;-77
2020/12/17 01:26:36;;;;;;;43.00;26.37;;;;;;;2.94;100.00;100623.16;2081887;28;20048;-77
2020/12/17 01:27:37;;;;;;;60.93;30.90;;;;;;;2.88;100.00;100623.97;2082204;28;20106;-77
2020/12/17 01:28:41;;;;;;;44.60;29.53;;;;;;;2.86;100.00;100624.81;2083402;28;21058;-78
2020/12/17 01:29:41;;;;;;;43.22;26.85;;;;;;;2.82;100.00;100625.63;2082072;28;20037;-77
2020/12/17 01:31:09;;;;;;;50.37;29.63;;;;;;;2.91;100.00;100630.84;2083281;28;20466;-74
2020/12/17 01:32:09;;;;;;;41.92;26.67;;;;;;;2.83;100.00;100627.34;2080619;28;20499;-75
2020/12/17 01:33:10;;;;;;;51.90;28.77;;;;;;;2.80;100.00;100629.03;2082074;28;20049;-77
2020/12/17 01:34:10;;;;;;;47.17;28.45;;;;;;;2.88;100.00;100629.09;2082050;28;20025;-77
2020/12/17 01:35:10;;;;;;;60.53;31.47;;;;;;;2.83;100.00;100633.38;2082562;28;20034;-77
2020/12/17 01:36:12;;;;;;;51.63;29.03;;;;;;;2.79;100.00;100629.03;2089317;28;20020;-78
2020/12/17 01:37:12;;;;;;;52.30;30.35;;;;;;;2.81;100.00;100629.91;2089399;28;20017;-78
2020/12/17 01:38:12;;;;;;;52.10;29.93;;;;;;;2.86;100.00;100632.53;2082144;28;20030;-78
2020/12/17 01:39:16;;;;;;;45.60;28.40;;;;;;;2.93;100.00;100634.28;2083310;28;20025;-81
2020/12/17 01:40:16;;;;;;;50.22;30.13;;;;;;;2.86;100.00;100638.53;2081651;28;20044;-81
2020/12/17 01:41:16;;;;;;;48.40;29.53;;;;;;;2.93;100.00;100635.19;2081355;28;20040;-81
2020/12/17 01:42:17;;;;;;;55.77;30.30;;;;;;;2.92;100.00;100637.72;2081770;28;20037;-81
2020/12/17 01:43:17;;;;;;;54.70;31.20;;;;;;;2.99;100.00;100641.22;2089523;28;20052;-81
2020/12/17 01:44:17;;;;;;;55.60;31.63;;;;;;;3.01;100.00;100642.94;2089386;28;20067;-82
2020/12/17 01:45:18;;;;;;;54.53;31.70;;;;;;;3.10;100.00;100639.59;2081807;28;20029;-82
2020/12/17 01:46:18;;;;;;;53.70;31.63;;;;;;;3.16;100.00;100641.34;2081208;28;20060;-80
2020/12/17 01:47:18;;;;;;;60.23;34.10;;;;;;;3.20;100.00;100636.22;2081480;28;20026;-80
2020/12/17 01:48:19;;;;;;;63.20;34.50;;;;;;;3.28;100.00;100638.88;2089581;28;20473;-80
2020/12/17 01:49:25;;;;;;;66.65;35.17;;;;;;;3.25;100.00;100644.00;2082062;28;20036;-80
2020/12/17 01:50:25;;;;;;;71.95;36.35;;;;;;;3.22;100.00;100639.69;2081289;28;20029;-82
2020/12/17 01:51:25;;;;;;;65.13;36.17;;;;;;;3.29;100.00;100638.00;2082110;28;20029;-81
2020/12/17 01:52:25;;;;;;;72.43;36.27;;;;;;;3.33;100.00;100642.31;2080302;28;20477;-81
2020/12/17 01:53:26;;;;;;;68.20;37.37;;;;;;;3.38;100.00;100638.03;2081634;28;20029;-81
2020/12/17 01:54:28;;;;;;;69.63;37.00;;;;;;;3.43;100.00;100640.66;2092058;28;20507;-81
2020/12/17 01:55:30;;;;;;;53.53;34.45;;;;;;;3.53;100.00;100636.44;2089846;28;20104;-80
2020/12/17 01:56:33;;;;;;;64.75;37.47;;;;;;;3.46;100.00;100644.97;2089164;28;20024;-75
2020/12/17 01:57:35;;;;;;;70.38;38.22;;;;;;;3.51;100.00;100643.28;2081847;28;20025;-73
2020/12/17 01:58:41;;;;;;;70.22;37.15;;;;;;;3.46;100.00;100640.69;2081222;28;20025;-75
2020/12/17 01:59:49;;;;;;;65.50;36.20;;;;;;;3.45;100.00;100636.38;2081966;28;20017;-75
2020/12/17 02:00:53;;;;;;;69.20;36.78;;;;;;;3.41;100.00;100640.66;2081162;28;20422;-75
2020/12/17 02:01:54;;;;;;;63.42;35.78;;;;;;;3.43;100.00;100636.38;2081201;28;20030;-75
2020/12/17 02:02:55;;;;;;;72.38;35.97;;;;;;;3.48;100.00;100644.13;2073446;28;20025;-76
2020/12/17 02:03:55;;;;;;;65.20;36.03;;;;;;;3.48;100.00;100643.28;2081567;28;20472;-75
2020/12/17 02:04:56;;;;;;;67.37;35.03;;;;;;;3.49;100.00;100643.28;2082787;28;20104;-76
2020/12/17 02:05:57;;;;;;;65.55;35.47;;;;;;;3.51;100.00;100644.16;2082421;28;20116;-76
2020/12/17 02:06:58;;;;;;;60.67;35.08;;;;;;;3.50;100.00;100646.72;2089306;28;20238;-76
2020/12/17 02:08:00;;;;;;;63.60;34.95;;;;;;;3.50;100.00;100644.13;2087103;28;20029;-76
2020/12/17 02:09:01;;;;;;;65.18;35.92;;;;;;;3.46;100.00;100644.97;2081490;28;20025;-76
2020/12/17 02:10:02;;;;;;;58.10;34.22;;;;;;;3.50;100.00;100650.16;2073276;28;20392;-76
2020/12/17 02:11:03;;;;;;;63.30;36.22;;;;;;;3.43;100.00;100646.69;2081780;28;20487;-81
2020/12/17 02:12:03;;;;;;;59.77;35.00;;;;;;;3.48;100.00;100643.28;2082262;28;20027;-82
2020/12/17 02:13:03;;;;;;;61.00;35.87;;;;;;;3.50;100.00;100649.28;2082212;28;20387;-81
2020/12/17 02:14:04;;;;;;;63.40;35.53;;;;;;;3.47;100.00;100646.72;2081926;28;20017;-82
2020/12/17 02:15:04;;;;;;;64.80;34.60;;;;;;;3.48;100.00;100651.00;2081904;28;20025;-82
2020/12/17 02:16:05;;;;;;;60.10;34.50;;;;;;;3.45;100.00;100648.41;2082060;28;20026;-82
2020/12/17 02:17:06;;;;;;;64.53;35.65;;;;;;;3.46;100.00;100650.13;2081993;28;20032;-82
2020/12/17 02:18:06;;;;;;;66.50;35.93;;;;;;;3.42;100.00;100649.25;2081731;28;20104;-82
2020/12/17 02:19:07;;;;;;;62.35;34.00;;;;;;;3.42;100.00;100654.41;2081348;28;20396;-82
2020/12/17 02:20:08;;;;;;;56.97;31.07;;;;;;;3.39;100.00;100655.22;2081304;28;20025;-82
2020/12/17 02:21:09;;;;;;;59.75;34.17;;;;;;;3.39;100.00;100656.97;2081979;28;20031;-81
2020/12/17 02:22:09;;;;;;;58.88;32.67;;;;;;;3.42;100.00;100657.00;2082265;28;20032;-82
2020/12/17 02:23:09;;;;;;;55.70;33.00;;;;;;;3.41;100.00;100657.84;2082176;28;20468;-82
2020/12/17 02:24:10;;;;;;;63.77;34.63;;;;;;;3.40;100.00;100661.25;2081980;28;20049;-82
2020/12/17 02:25:13;;;;;;;58.70;34.53;;;;;;;3.38;100.00;100656.09;2082173;28;20383;-82
2020/12/17 02:26:14;;;;;;;55.45;32.95;;;;;;;3.37;100.00;100651.81;2081350;28;20096;-82
2020/12/17 02:27:14;;;;;;;57.42;33.83;;;;;;;3.43;100.00;100649.25;2082245;28;20025;-82
2020/12/17 02:28:15;;;;;;;63.00;35.23;;;;;;;3.45;100.00;100651.00;2081963;28;20161;-82
2020/12/17 02:29:16;;;;;;;;;;;;;;;3.37;100.00;100646.66;2082797;28;20477;-82
2020/12/17 02:30:16;;;;;;;57.05;31.95;;;;;;;3.38;100.00;100648.34;2082501;28;19909;-82
2020/12/17 02:31:16;;;;;;;59.13;33.20;;;;;;;3.40;100.00;100649.22;2082288;28;20403;-82
2020/12/17 02:32:17;;;;;;;60.33;33.37;;;;;;;3.38;100.00;100650.94;2081913;28;20392;-82
2020/12/17 02:33:17;;;;;;;56.53;32.00;;;;;;;3.34;100.00;100648.31;2082197;28;20036;-82
2020/12/17 02:34:18;;;;;;;57.28;33.10;;;;;;;3.30;100.00;100651.75;2081887;28;20453;-82
2020/12/17 02:35:18;;;;;;;62.83;34.70;;;;;;;3.31;100.00;100653.47;2082024;28;20048;-82
2020/12/17 02:36:19;;;;;;;58.77;33.73;;;;;;;3.30;100.00;100644.88;2081404;28;20357;-83
2020/12/17 02:37:19;;;;;;;61.53;35.08;;;;;;;3.30;100.00;100651.75;2081587;28;20021;-83
2020/12/17 02:38:20;;;;;;;64.80;35.37;;;;;;;3.30;100.00;100650.03;2081870;28;20495;-82
2020/12/17 02:39:20;;;;;;;57.17;33.33;;;;;;;3.36;100.00;100650.09;2082129;28;20017;-82
2020/12/17 02:40:20;;;;;;;61.90;33.50;;;;;;;3.35;100.00;100648.34;2081465;28;20134;-82
2020/12/17 02:41:21;;;;;;;57.70;35.00;;;;;;;3.33;100.00;100641.47;2081737;28;20119;-82
2020/12/17 02:42:21;;;;;;;65.60;36.07;;;;;;;3.32;100.00;100648.31;2081760;28;20018;-82
2020/12/17 02:43:21;;;;;;;68.40;34.97;;;;;;;3.30;100.00;100639.72;2082001;28;20580;-82
2020/12/17 02:44:22;;;;;;;64.47;35.47;;;;;;;3.32;100.00;100638.00;2081270;28;20395;-82
2020/12/17 02:45:22;;;;;;;60.57;35.63;;;;;;;3.28;100.00;100638.88;2081505;28;20033;-81
2020/12/17 02:46:22;;;;;;;62.77;34.17;;;;;;;3.26;100.00;100636.25;2082240;28;20483;-82
2020/12/17 02:47:23;;;;;;;64.87;35.77;;;;;;;3.25;100.00;100641.41;2081947;28;20108;-82
2020/12/17 02:48:23;;;;;;;57.77;32.37;;;;;;;3.20;100.00;100646.53;2089609;28;20430;-82
2020/12/17 02:49:23;;;;;;;60.40;33.53;;;;;;;3.24;100.00;100643.09;2081276;28;20625;-82
2020/12/17 02:50:24;;;;;;;63.60;34.67;;;;;;;3.23;100.00;100645.69;2073344;28;20049;-82
2020/12/17 02:51:24;;;;;;;61.93;33.97;;;;;;;3.31;100.00;100649.16;2081225;28;20025;-83
2020/12/17 02:52:24;;;;;;;59.00;32.67;;;;;;;3.24;100.00;100642.25;2081398;28;20479;-82
2020/12/17 02:53:25;;;;;;;62.57;35.07;;;;;;;3.21;100.00;100644.81;2081142;28;20029;-82
2020/12/17 02:54:25;;;;;;;61.25;33.30;;;;;;;3.23;100.00;100635.38;2089563;28;20534;-82
2020/12/17 02:55:25;;;;;;;60.53;33.43;;;;;;;3.16;100.00;100637.03;2081945;28;20388;-81
2020/12/17 02:56:26;;;;;;;65.77;36.47;;;;;;;3.11;100.00;100638.75;2082029;28;20036;-82
2020/12/17 02:57:26;;;;;;;73.47;37.60;;;;;;;3.04;100.00;100645.56;2089456;28;20025;-82
2020/12/17 02:58:26;;;;;;;67.07;36.00;;;;;;;3.11;100.00;100643.88;2089579;28;20033;-82
2020/12/17 02:59:27;;;;;;;61.50;34.40;;;;;;;3.10;100.00;100648.16;2081353;28;20052;-82
2020/12/17 03:00:27;;;;;;;64.20;34.60;;;;;;;3.14;100.00;100640.47;2073091;28;20032;-82
2020/12/17 03:01:27;;;;;;;62.37;35.83;;;;;;;3.16;100.00;100642.19;2081164;28;20111;-82
2020/12/17 03:02:28;;;;;;;64.63;36.13;;;;;;;3.08;100.00;100642.16;2082156;28;20037;-82
2020/12/17 03:03:28;;;;;;;68.87;37.30;;;;;;;3.10;100.00;100637.84;2080749;28;20099;-82
2020/12/17 03:04:28;;;;;;;64.03;34.93;;;;;;;3.05;100.00;100641.25;2081168;28;20406;-82
2020/12/17 03:05:28;;;;;;;74.53;37.73;;;;;;;2.95;100.00;100642.91;2082022;28;20433;-82
2020/12/17 03:06:29;;;;;;;67.27;35.67;;;;;;;2.96;100.00;100649.78;2081954;28;20376;-82
2020/12/17 03:07:29;;;;;;;61.43;36.03;;;;;;;2.96;100.00;100644.63;2081780;28;20384;-82
2020/12/17 03:08:29;;;;;;;71.00;36.83;;;;;;;3.03;100.00;100648.97;2081675;28;20036;-83
2020/12/17 03:09:29;;;;;;;59.00;33.50;;;;;;;2.93;100.00;100647.16;2081461;28;20459;-82
2020/12/17 03:10:30;;;;;;;68.43;36.93;;;;;;;2.97;100.00;100651.50;2081605;28;20033;-82
2020/12/17 03:11:30;;;;;;;70.77;34.80;;;;;;;2.96;100.00;100644.63;2084344;28;20399;-82
2020/12/17 03:12:30;;;;;;;64.53;36.23;;;;;;;2.94;100.00;100644.59;2077760;28;20491;-82
2020/12/17 03:13:31;;;;;;;69.70;35.97;;;;;;;2.94;100.00;100648.91;2080896;28;20029;-82
2020/12/17 03:14:31;;;;;;;62.37;35.43;;;;;;;2.91;100.00;100646.28;2080496;28;20537;-82
2020/12/17 03:15:31;;;;;;;63.90;34.30;;;;;;;2.93;100.00;100648.06;2089345;28;20032;-82
2020/12/17 03:16:32;;;;;;;59.93;33.90;;;;;;;2.91;100.00;100651.44;2089301;28;20033;-82
2020/12/17 03:17:33;;;;;;;63.22;35.67;;;;;;;2.92;100.00;100653.16;2081501;28;20384;-82
2020/12/17 03:18:33;;;;;;;63.43;36.07;;;;;;;2.98;100.00;100657.50;2081247;28;20025;-82
2020/12/17 03:19:33;;;;;;;73.43;37.27;;;;;;;2.92;100.00;100650.59;2081350;28;20529;-76
2020/12/17 03:20:33;;;;;;;64.93;35.73;;;;;;;2.89;100.00;100660.88;2080695;28;20048;-76
2020/12/17 03:21:34;;;;;;;72.07;38.27;;;;;;;2.88;100.00;100649.72;2080844;28;20087;-76
2020/12/17 03:22:35;;;;;;;75.70;38.20;;;;;;;2.90;100.00;100660.00;2081452;28;20048;-76
2020/12/17 03:23:35;;;;;;;62.72;36.78;;;;;;;2.89;100.00;100658.31;2081303;28;20070;-76
2020/12/17 03:24:36;;;;;;;71.97;38.30;;;;;;;2.91;100.00;100656.59;2081419;28;20434;-76
2020/12/17 03:25:36;;;;;;;65.43;37.90;;;;;;;2.98;100.00;100654.94;2081551;28;20025;-76
2020/12/17 03:26:36;;;;;;;72.83;36.87;;;;;;;2.93;100.00;100660.03;2089080;28;20471;-76
2020/12/17 03:27:36;;;;;;;70.27;36.70;;;;;;;2.89;100.00;100664.31;2089177;28;20074;-75
2020/12/17 03:28:40;;;;;;;69.37;36.30;;;;;;;2.87;100.00;100660.84;2080778;28;20025;-76
2020/12/17 03:29:40;;;;;;;64.65;34.38;;;;;;;2.89;100.00;100661.72;2080835;28;20047;-76
2020/12/17 03:30:40;;;;;;;72.43;36.37;;;;;;;2.86;100.00;100660.84;2081509;28;20029;-76
2020/12/17 03:31:41;;;;;;;62.57;36.13;;;;;;;2.84;100.00;100660.81;2081400;28;20021;-76
2020/12/17 03:32:41;;;;;;;67.33;35.97;;;;;;;2.87;100.00;100667.72;2081294;28;20538;-76
2020/12/17 03:33:41;;;;;;;62.53;35.00;;;;;;;2.84;100.00;100668.53;2080926;28;20079;-76
2020/12/17 03:34:41;;;;;;;65.70;35.20;;;;;;;2.84;100.00;100671.09;2080966;28;20033;-76
2020/12/17 03:35:42;;;;;;;67.97;37.80;;;;;;;2.82;100.00;100669.38;2081246;28;20036;-76
2020/12/17 03:36:42;;;;;;;70.03;37.00;;;;;;;2.78;100.00;100671.06;2088704;28;20021;-76
2020/12/17 03:37:42;;;;;;;73.93;38.23;;;;;;;2.74;100.00;100670.19;2089107;28;20029;-76
2020/12/17 03:38:42;;;;;;;74.10;37.60;;;;;;;2.67;100.00;100670.09;2080638;28;20022;-76
2020/12/17 03:39:43;;;;;;;66.73;37.23;;;;;;;2.83;100.00;100671.09;2080733;28;20025;-76
2020/12/17 03:40:43;;;;;;;71.03;38.37;;;;;;;2.69;100.00;100666.72;2088500;28;20079;-76
2020/12/17 03:41:44;;;;;;;71.90;37.13;;;;;;;2.72;100.00;100676.16;2088322;28;20105;-76
2020/12/17 03:42:44;;;;;;;64.73;37.67;;;;;;;2.68;100.00;100666.69;2080756;28;20061;-76
2020/12/17 03:43:44;;;;;;;67.87;37.90;;;;;;;2.77;100.00;100659.03;2081253;28;20113;-76
2020/12/17 03:44:45;;;;;;;71.73;36.67;;;;;;;2.74;100.00;100664.19;2088880;28;20028;-76
2020/12/17 03:45:45;;;;;;;75.72;37.20;;;;;;;2.76;100.00;100665.03;2080570;28;20025;-76
2020/12/17 03:46:46;;;;;;;66.37;35.37;;;;;;;2.71;100.00;100665.00;2080800;28;20204;-76
2020/12/17 03:47:46;;;;;;;63.40;36.93;;;;;;;2.78;100.00;100659.06;2081164;28;20024;-76
2020/12/17 03:48:46;;;;;;;68.55;36.53;;;;;;;2.76;100.00;100662.47;2081329;28;20480;-76
2020/12/17 03:49:47;;;;;;;67.13;35.70;;;;;;;2.86;100.00;100664.28;2081183;28;20483;-76
2020/12/17 03:50:47;;;;;;;68.13;35.57;;;;;;;2.90;100.00;100667.72;2081420;28;20411;-76
2020/12/17 03:51:48;;;;;;;63.93;35.10;;;;;;;2.98;100.00;100667.81;2081177;28;20025;-76
2020/12/17 03:52:48;;;;;;;61.75;33.83;;;;;;;2.93;100.00;100672.91;2089227;28;20029;-76
2020/12/17 03:53:48;;;;;;;70.47;37.00;;;;;;;2.91;100.00;100667.75;2088412;28;20111;-76
2020/12/17 03:54:49;;;;;;;66.77;35.60;;;;;;;2.90;100.00;100663.47;2080347;28;20048;-76
2020/12/17 03:55:49;;;;;;;69.03;36.23;;;;;;;2.94;100.00;100661.78;2080441;28;20051;-76
2020/12/17 03:56:49;;;;;;;65.00;35.70;;;;;;;2.91;100.00;100656.59;2088079;28;20570;-76
2020/12/17 03:57:49;;;;;;;65.27;36.93;;;;;;;2.98;100.00;100666.13;2081279;28;20483;-76
2020/12/17 03:58:50;;;;;;;61.37;35.70;;;;;;;2.89;100.00;100666.03;2080856;28;20029;-76
2020/12/17 03:59:50;;;;;;;62.77;34.23;;;;;;;2.91;100.00;100669.47;2080460;28;20037;-76
2020/12/17 04:00:50;;;;;;;60.77;34.87;;;;;;;2.93;100.00;100660.94;2080567;28;20029;-76
2020/12/17 04:01:50;;;;;;;61.73;34.43;;;;;;;2.95;100.00;100659.19;2088562;28;20553;-76
2020/12/17 04:02:51;;;;;;;67.53;35.20;;;;;;;2.94;100.00;100656.63;2081272;28;20388;-76
2020/12/17 04:03:51;;;;;;;62.93;36.20;;;;;;;2.94;100.00;100657.47;2080927;28;20021;-76
2020/12/17 04:04:52;;;;;;;62.40;34.93;;;;;;;2.88;100.00;100654.00;2081098;28;20021;-76
2020/12/17 04:05:52;;;;;;;62.37;34.03;;;;;;;2.86;100.00;100655.69;2081135;28;20518;-76
2020/12/17 04:06:52;;;;;;;61.90;35.50;;;;;;;2.87;100.00;100663.44;2081126;28;20037;-76
2020/12/17 04:07:52;;;;;;;65.27;35.57;;;;;;;2.83;100.00;100664.25;2087917;28;20037;-76
2020/12/17 04:08:53;;;;;;;58.70;34.87;;;;;;;2.77;100.00;100665.06;2089486;28;20025;-76
2020/12/17 04:09:53;;;;;;;59.42;34.13;;;;;;;2.79;100.00;100660.78;2088584;28;20025;-76
2020/12/17 04:10:54;;;;;;;65.27;35.87;;;;;;;2.72;100.00;100666.72;2088887;28;20029;-76
2020/12/17 04:11:54;;;;;;;58.87;34.07;;;;;;;2.84;100.00;100662.53;2089416;28;20025;-76
2020/12/17 04:12:54;;;;;;;58.87;33.40;;;;;;;2.78;100.00;100666.81;2089420;28;20024;-76
2020/12/17 04:13:54;;;;;;;56.90;34.37;;;;;;;2.85;100.00;100662.53;2084262;28;20029;-76
2020/12/17 04:14:55;;;;;;;60.87;34.47;;;;;;;2.81;100.00;100665.97;2080566;28;20029;-76
2020/12/17 04:15:55;;;;;;;63.03;35.33;;;;;;;2.78;100.00;100663.34;2088766;28;20032;-76
2020/12/17 04:16:55;;;;;;;63.03;35.10;;;;;;;2.74;100.00;100665.03;2088642;28;20032;-76
2020/12/17 04:17:55;;;;;;;64.07;35.53;;;;;;;2.72;100.00;100669.28;2080603;28;20029;-76
2020/12/17 04:18:56;;;;;;;69.73;35.17;;;;;;;2.68;100.00;100664.97;2080221;28;20112;-76
2020/12/17 04:19:56;;;;;;;62.03;34.90;;;;;;;2.76;100.00;100667.59;2080615;28;20056;-76
2020/12/17 04:20:56;;;;;;;57.87;34.67;;;;;;;2.74;100.00;100659.88;2081015;28;20033;-76
2020/12/17 04:21:57;;;;;;;69.20;34.57;;;;;;;2.69;100.00;100666.72;2080456;28;20049;-76
2020/12/17 04:22:57;;;;;;;62.77;35.93;;;;;;;2.68;100.00;100675.28;2080495;28;20088;-76
2020/12/17 04:23:57;;;;;;;63.90;35.17;;;;;;;2.68;100.00;100664.97;2080535;28;20047;-76
2020/12/17 04:24:58;;;;;;;67.73;35.80;;;;;;;2.74;100.00;100665.03;2081176;28;20025;-76
2020/12/17 04:25:59;;;;;;;60.77;33.60;;;;;;;2.78;100.00;100661.66;2080902;28;20391;-76
2020/12/17 04:26:59;;;;;;;67.03;35.88;;;;;;;2.70;100.00;100668.41;2081003;28;20384;-76
2020/12/17 04:28:00;;;;;;;68.07;35.73;;;;;;;2.65;100.00;100667.53;2080584;28;20120;-76
2020/12/17 04:29:01;;;;;;;66.73;34.80;;;;;;;2.75;100.00;100666.75;2080652;28;20056;-76
2020/12/17 04:30:03;;;;;;;61.45;35.28;;;;;;;2.72;100.00;100666.72;2081650;28;20049;-76
2020/12/17 04:31:03;;;;;;;62.33;33.28;;;;;;;2.71;100.00;100675.28;2081147;28;20026;-76
2020/12/17 04:32:03;;;;;;;58.07;34.67;;;;;;;2.71;100.00;100669.28;2081228;28;20113;-76
2020/12/17 04:33:04;;;;;;;62.50;34.90;;;;;;;2.76;100.00;100667.59;2081092;28;20029;-76
2020/12/17 04:34:04;;;;;;;64.50;34.87;;;;;;;2.74;100.00;100667.59;2081313;28;20104;-76
2020/12/17 04:35:04;;;;;;;60.80;34.50;;;;;;;2.74;100.00;100672.75;2081461;28;20021;-76
2020/12/17 04:36:05;;;;;;;64.13;35.20;;;;;;;2.73;100.00;100683.03;2080782;28;20033;-76